sensor_id;sensor_type;location;lat;lon;timestamp;pressure;altitude;pressure_sealevel;temperature;humidity
804;BME280;25687;49.976;8.240;2024-01-15T00:01:02;99016.06;;;-2.86;100.00
804;BME280;25687;49.976;8.240;2024-01-15T00:03:27;99018.69;;;-2.92;100.00
804;BME280;25687;49.976;8.240;2024-01-15T00:05:52;99011.81;;;-2.82;100.00
804;BME280;25687;49.976;8.240;2024-01-15T00:08:17;99003.53;;;-2.87;100.00
804;BME280;25687;49.976;8.240;2024-01-15T00:10:43;99002.66;;;-2.86;100.00
804;BME280;25687;49.976;8.240;2024-01-15T00:13:08;98994.69;;;-2.63;100.00
804;BME280;25687;49.976;8.240;2024-01-15T00:15:33;98987.34;;;-2.76;100.00
804;BME280;25687;49.976;8.240;2024-01-15T00:17:59;98985.63;;;-2.72;100.00
804;BME280;25687;49.976;8.240;2024-01-15T00:20:24;98978.06;;;-2.72;100.00
804;BME280;25687;49.976;8.240;2024-01-15T00:22:49;98978.97;;;-2.76;100.00
804;BME280;25687;49.976;8.240;2024-01-15T00:25:14;98974.75;;;-2.76;100.00
804;BME280;25687;49.976;8.240;2024-01-15T00:27:40;98975.66;;;-2.78;100.00
804;BME280;25687;49.976;8.240;2024-01-15T00:30:05;98976.50;;;-2.78;100.00
804;BME280;25687;49.976;8.240;2024-01-15T00:32:31;98974.09;;;-2.84;100.00
804;BME280;25687;49.976;8.240;2024-01-15T00:34:56;98966.44;;;-2.78;100.00
804;BME280;25687;49.976;8.240;2024-01-15T00:37:22;98966.38;;;-2.74;100.00
804;BME280;25687;49.976;8.240;2024-01-15T00:39:47;98962.06;;;-2.68;100.00
804;BME280;25687;49.976;8.240;2024-01-15T00:42:12;98962.06;;;-2.68;100.00
804;BME280;25687;49.976;8.240;2024-01-15T00:44:38;98966.09;;;-2.61;100.00
804;BME280;25687;49.976;8.240;2024-01-15T00:47:03;98961.19;;;-2.67;100.00
804;BME280;25687;49.976;8.240;2024-01-15T00:49:28;98963.63;;;-2.62;100.00
804;BME280;25687;49.976;8.240;2024-01-15T00:51:54;98956.91;;;-2.62;100.00
804;BME280;25687;49.976;8.240;2024-01-15T00:54:19;98970.28;;;-2.60;100.00
804;BME280;25687;49.976;8.240;2024-01-15T00:56:45;98961.63;;;-2.46;100.00
804;BME280;25687;49.976;8.240;2024-01-15T00:59:11;98965.09;;;-2.50;100.00
804;BME280;25687;49.976;8.240;2024-01-15T01:01:40;98950.03;;;-2.53;100.00
804;BME280;25687;49.976;8.240;2024-01-15T01:04:08;98945.91;;;-2.57;100.00
804;BME280;25687;49.976;8.240;2024-01-15T01:06:34;98953.63;;;-2.65;100.00
804;BME280;25687;49.976;8.240;2024-01-15T01:08:59;98949.56;;;-2.72;100.00
804;BME280;25687;49.976;8.240;2024-01-15T01:11:25;98944.56;;;-2.74;100.00
804;BME280;25687;49.976;8.240;2024-01-15T01:13:50;98942.94;;;-2.77;100.00
804;BME280;25687;49.976;8.240;2024-01-15T01:16:15;98947.03;;;-2.72;100.00
804;BME280;25687;49.976;8.240;2024-01-15T01:18:40;98937.84;;;-2.75;100.00
804;BME280;25687;49.976;8.240;2024-01-15T01:21:06;98935.38;;;-2.77;100.00
804;BME280;25687;49.976;8.240;2024-01-15T01:23:31;98942.00;;;-2.72;100.00
804;BME280;25687;49.976;8.240;2024-01-15T01:25:56;98933.38;;;-2.61;100.00
804;BME280;25687;49.976;8.240;2024-01-15T01:28:22;98931.94;;;-2.72;100.00
804;BME280;25687;49.976;8.240;2024-01-15T01:30:47;98942.94;;;-2.77;100.00
804;BME280;25687;49.976;8.240;2024-01-15T01:33:12;98954.50;;;-2.68;100.00
804;BME280;25687;49.976;8.240;2024-01-15T01:35:37;98948.47;;;-2.59;100.00
804;BME280;25687;49.976;8.240;2024-01-15T01:38:03;98954.31;;;-2.58;100.00
804;BME280;25687;49.976;8.240;2024-01-15T01:40:28;98950.38;;;-2.70;100.00
804;BME280;25687;49.976;8.240;2024-01-15T01:42:54;98944.22;;;-2.57;100.00
804;BME280;25687;49.976;8.240;2024-01-15T01:45:19;98937.75;;;-2.69;100.00
804;BME280;25687;49.976;8.240;2024-01-15T01:47:44;98941.81;;;-2.63;100.00
804;BME280;25687;49.976;8.240;2024-01-15T01:50:09;98929.22;;;-2.62;100.00
804;BME280;25687;49.976;8.240;2024-01-15T01:52:35;98916.50;;;-2.57;100.00
804;BME280;25687;49.976;8.240;2024-01-15T01:55:02;98917.38;;;-2.56;100.00
804;BME280;25687;49.976;8.240;2024-01-15T01:57:28;98926.63;;;-2.58;100.00
804;BME280;25687;49.976;8.240;2024-01-15T01:59:54;98925.84;;;-2.62;100.00
804;BME280;25687;49.976;8.240;2024-01-15T02:02:20;98926.91;;;-2.72;100.00
804;BME280;25687;49.976;8.240;2024-01-15T02:04:47;98915.25;;;-2.77;100.00
804;BME280;25687;49.976;8.240;2024-01-15T02:07:13;98920.91;;;-2.65;100.00
804;BME280;25687;49.976;8.240;2024-01-15T02:09:38;98919.19;;;-2.65;100.00
804;BME280;25687;49.976;8.240;2024-01-15T02:12:04;98916.63;;;-2.63;100.00
804;BME280;25687;49.976;8.240;2024-01-15T02:14:29;98913.22;;;-2.61;100.00
804;BME280;25687;49.976;8.240;2024-01-15T02:16:55;98913.22;;;-2.61;100.00
804;BME280;25687;49.976;8.240;2024-01-15T02:19:20;98916.59;;;-2.60;100.00
804;BME280;25687;49.976;8.240;2024-01-15T02:21:45;98902.22;;;-2.55;100.00
804;BME280;25687;49.976;8.240;2024-01-15T02:24:11;98911.47;;;-2.57;100.00
804;BME280;25687;49.976;8.240;2024-01-15T02:26:37;98891.31;;;-2.55;100.00
804;BME280;25687;49.976;8.240;2024-01-15T02:29:03;98893.81;;;-2.54;100.00
804;BME280;25687;49.976;8.240;2024-01-15T02:31:29;98907.03;;;-2.44;100.00
804;BME280;25687;49.976;8.240;2024-01-15T02:33:55;98908.66;;;-2.41;100.00
804;BME280;25687;49.976;8.240;2024-01-15T02:36:20;98908.50;;;-2.34;100.00
804;BME280;25687;49.976;8.240;2024-01-15T02:38:45;98917.81;;;-2.37;100.00
804;BME280;25687;49.976;8.240;2024-01-15T02:41:10;98918.13;;;-2.53;100.00
804;BME280;25687;49.976;8.240;2024-01-15T02:43:36;98918.00;;;-2.47;100.00
804;BME280;25687;49.976;8.240;2024-01-15T02:46:01;98907.03;;;-2.46;100.00
804;BME280;25687;49.976;8.240;2024-01-15T02:48:26;98916.00;;;-2.31;100.00
804;BME280;25687;49.976;8.240;2024-01-15T02:50:51;98900.03;;;-2.31;100.00
804;BME280;25687;49.976;8.240;2024-01-15T02:53:17;98903.41;;;-2.31;100.00
804;BME280;25687;49.976;8.240;2024-01-15T02:55:42;98908.50;;;-2.34;100.00
804;BME280;25687;49.976;8.240;2024-01-15T02:58:07;98909.44;;;-2.38;100.00
804;BME280;25687;49.976;8.240;2024-01-15T03:00:33;98912.63;;;-2.31;100.00
804;BME280;25687;49.976;8.240;2024-01-15T03:02:58;98906.88;;;-2.36;100.00
804;BME280;25687;49.976;8.240;2024-01-15T03:05:23;98899.34;;;-2.38;100.00
804;BME280;25687;49.976;8.240;2024-01-15T03:07:48;98900.34;;;-2.45;100.00
804;BME280;25687;49.976;8.240;2024-01-15T03:10:14;98901.28;;;-2.51;100.00
804;BME280;25687;49.976;8.240;2024-01-15T03:12:39;98901.28;;;-2.51;100.00
804;BME280;25687;49.976;8.240;2024-01-15T03:15:05;98898.81;;;-2.52;100.00
804;BME280;25687;49.976;8.240;2024-01-15T03:17:30;98896.56;;;-2.66;100.00
804;BME280;25687;49.976;8.240;2024-01-15T03:19:55;98904.16;;;-2.68;100.00
804;BME280;25687;49.976;8.240;2024-01-15T03:22:20;98909.16;;;-2.66;100.00
804;BME280;25687;49.976;8.240;2024-01-15T03:24:46;98906.69;;;-2.68;100.00
804;BME280;25687;49.976;8.240;2024-01-15T03:27:11;98905.78;;;-2.65;100.00
804;BME280;25687;49.976;8.240;2024-01-15T03:29:36;98904.97;;;-2.67;100.00
804;BME280;25687;49.976;8.240;2024-01-15T03:32:02;98897.09;;;-2.52;100.00
804;BME280;25687;49.976;8.240;2024-01-15T03:34:27;98904.81;;;-2.60;100.00
804;BME280;25687;49.976;8.240;2024-01-15T03:36:53;98906.47;;;-2.58;100.00
804;BME280;25687;49.976;8.240;2024-01-15T03:39:18;98906.22;;;-2.46;100.00
804;BME280;25687;49.976;8.240;2024-01-15T03:41:43;98897.88;;;-2.48;100.00
804;BME280;25687;49.976;8.240;2024-01-15T03:44:08;98898.69;;;-2.46;100.00
804;BME280;25687;49.976;8.240;2024-01-15T03:46:34;98883.66;;;-2.51;100.00
804;BME280;25687;49.976;8.240;2024-01-15T03:48:59;98886.97;;;-2.49;100.00
804;BME280;25687;49.976;8.240;2024-01-15T03:51:24;98891.00;;;-2.40;100.00
804;BME280;25687;49.976;8.240;2024-01-15T03:53:49;98879.94;;;-2.33;100.00
804;BME280;25687;49.976;8.240;2024-01-15T03:56:15;98878.28;;;-2.34;100.00
804;BME280;25687;49.976;8.240;2024-01-15T03:58:40;98874.91;;;-2.33;100.00
804;BME280;25687;49.976;8.240;2024-01-15T04:01:11;98873.28;;;-2.35;100.00
804;BME280;25687;49.976;8.240;2024-01-15T04:03:37;98873.88;;;-2.24;100.00
804;BME280;25687;49.976;8.240;2024-01-15T04:06:03;98867.13;;;-2.23;100.00
804;BME280;25687;49.976;8.240;2024-01-15T04:08:29;98866.41;;;-2.29;100.00
804;BME280;25687;49.976;8.240;2024-01-15T04:10:54;98871.53;;;-2.32;100.00
804;BME280;25687;49.976;8.240;2024-01-15T04:13:20;98864.88;;;-2.36;100.00
804;BME280;25687;49.976;8.240;2024-01-15T04:15:45;98870.75;;;-2.35;100.00
804;BME280;25687;49.976;8.240;2024-01-15T04:18:10;98870.63;;;-2.29;100.00
804;BME280;25687;49.976;8.240;2024-01-15T04:20:36;98863.16;;;-2.34;100.00
804;BME280;25687;49.976;8.240;2024-01-15T04:23:01;98865.75;;;-2.37;100.00
804;BME280;25687;49.976;8.240;2024-01-15T04:25:26;98855.66;;;-2.35;100.00
804;BME280;25687;49.976;8.240;2024-01-15T04:27:51;98872.28;;;-2.28;100.00
804;BME280;25687;49.976;8.240;2024-01-15T04:30:17;98863.84;;;-2.27;100.00
804;BME280;25687;49.976;8.240;2024-01-15T04:32:42;98866.22;;;-2.19;100.00
804;BME280;25687;49.976;8.240;2024-01-15T04:35:07;98860.34;;;-2.20;100.00
804;BME280;25687;49.976;8.240;2024-01-15T04:37:33;98862.97;;;-2.24;100.00
804;BME280;25687;49.976;8.240;2024-01-15T04:39:58;98855.38;;;-2.23;100.00
804;BME280;25687;49.976;8.240;2024-01-15T04:42:23;98845.44;;;-2.29;100.00
804;BME280;25687;49.976;8.240;2024-01-15T04:44:49;98850.47;;;-2.29;100.00
804;BME280;25687;49.976;8.240;2024-01-15T04:47:14;98849.63;;;-2.28;100.00
804;BME280;25687;49.976;8.240;2024-01-15T04:49:39;98851.09;;;-2.21;100.00
804;BME280;25687;49.976;8.240;2024-01-15T04:52:04;98854.50;;;-2.22;100.00
804;BME280;25687;49.976;8.240;2024-01-15T04:54:30;98843.56;;;-2.21;100.00
804;BME280;25687;49.976;8.240;2024-01-15T04:56:55;98835.91;;;-2.16;100.00
804;BME280;25687;49.976;8.240;2024-01-15T04:59:20;98845.97;;;-2.16;100.00
804;BME280;25687;49.976;8.240;2024-01-15T05:01:45;98840.75;;;-2.08;100.00
804;BME280;25687;49.976;8.240;2024-01-15T05:04:11;98843.50;;;-2.18;100.00
804;BME280;25687;49.976;8.240;2024-01-15T05:06:36;98841.06;;;-2.22;100.00
804;BME280;25687;49.976;8.240;2024-01-15T05:09:01;98839.34;;;-2.20;100.00
804;BME280;25687;49.976;8.240;2024-01-15T05:11:28;98842.47;;;-2.09;100.00
804;BME280;25687;49.976;8.240;2024-01-15T05:13:53;98846.56;;;-2.05;100.00
804;BME280;25687;49.976;8.240;2024-01-15T05:16:18;98846.69;;;-2.09;100.00
804;BME280;25687;49.976;8.240;2024-01-15T05:18:44;98849.06;;;-2.05;100.00
804;BME280;25687;49.976;8.240;2024-01-15T05:21:09;98852.00;;;-2.22;100.00
804;BME280;25687;49.976;8.240;2024-01-15T05:23:34;98851.22;;;-2.25;100.00
804;BME280;25687;49.976;8.240;2024-01-15T05:25:59;98847.28;;;-2.37;100.00
804;BME280;25687;49.976;8.240;2024-01-15T05:28:25;98840.31;;;-2.26;100.00
804;BME280;25687;49.976;8.240;2024-01-15T05:30:50;98842.81;;;-2.24;100.00
804;BME280;25687;49.976;8.240;2024-01-15T05:33:16;98839.53;;;-2.28;100.00
804;BME280;25687;49.976;8.240;2024-01-15T05:35:42;98832.88;;;-2.32;100.00
804;BME280;25687;49.976;8.240;2024-01-15T05:38:07;98832.75;;;-2.26;100.00
804;BME280;25687;49.976;8.240;2024-01-15T05:40:32;98836.22;;;-2.30;100.00
804;BME280;25687;49.976;8.240;2024-01-15T05:42:58;98832.78;;;-2.28;100.00
804;BME280;25687;49.976;8.240;2024-01-15T05:45:23;98836.03;;;-2.22;100.00
804;BME280;25687;49.976;8.240;2024-01-15T05:47:48;98832.59;;;-2.18;100.00
804;BME280;25687;49.976;8.240;2024-01-15T05:50:14;98830.94;;;-2.19;100.00
804;BME280;25687;49.976;8.240;2024-01-15T05:52:39;98827.63;;;-2.21;100.00
804;BME280;25687;49.976;8.240;2024-01-15T05:55:05;98827.72;;;-2.24;100.00
804;BME280;25687;49.976;8.240;2024-01-15T05:57:30;98832.69;;;-2.23;100.00
804;BME280;25687;49.976;8.240;2024-01-15T05:59:56;98827.66;;;-2.23;100.00
804;BME280;25687;49.976;8.240;2024-01-15T06:02:21;98825.03;;;-2.18;100.00
804;BME280;25687;49.976;8.240;2024-01-15T06:04:46;98821.78;;;-2.23;100.00
804;BME280;25687;49.976;8.240;2024-01-15T06:07:11;98811.75;;;-2.25;100.00
804;BME280;25687;49.976;8.240;2024-01-15T06:09:37;98814.13;;;-2.19;100.00
804;BME280;25687;49.976;8.240;2024-01-15T06:12:03;98803.16;;;-2.16;100.00
804;BME280;25687;49.976;8.240;2024-01-15T06:14:29;98804.75;;;-2.14;100.00
804;BME280;25687;49.976;8.240;2024-01-15T06:16:54;98810.50;;;-2.08;100.00
804;BME280;25687;49.976;8.240;2024-01-15T06:19:19;98817.25;;;-2.09;100.00
804;BME280;25687;49.976;8.240;2024-01-15T06:21:45;98818.16;;;-2.12;100.00
804;BME280;25687;49.976;8.240;2024-01-15T06:24:10;98817.34;;;-2.14;100.00
804;BME280;25687;49.976;8.240;2024-01-15T06:26:36;98814.97;;;-2.20;100.00
804;BME280;25687;49.976;8.240;2024-01-15T06:29:01;98819.88;;;-2.12;100.00
804;BME280;25687;49.976;8.240;2024-01-15T06:31:28;98820.72;;;-2.13;100.00
804;BME280;25687;49.976;8.240;2024-01-15T06:33:53;98822.34;;;-2.11;100.00
804;BME280;25687;49.976;8.240;2024-01-15T06:36:18;98826.03;;;-2.25;100.00
804;BME280;25687;49.976;8.240;2024-01-15T06:38:44;98833.47;;;-2.21;100.00
804;BME280;25687;49.976;8.240;2024-01-15T06:41:09;98818.53;;;-2.29;100.00
804;BME280;25687;49.976;8.240;2024-01-15T06:43:35;98821.78;;;-2.23;100.00
804;BME280;25687;49.976;8.240;2024-01-15T06:46:00;98820.00;;;-2.18;100.00
804;BME280;25687;49.976;8.240;2024-01-15T06:48:25;98827.72;;;-2.24;100.00
804;BME280;25687;49.976;8.240;2024-01-15T06:50:51;98812.50;;;-2.21;100.00
804;BME280;25687;49.976;8.240;2024-01-15T06:53:16;98825.06;;;-2.20;100.00
804;BME280;25687;49.976;8.240;2024-01-15T06:55:41;98811.53;;;-2.16;100.00
804;BME280;25687;49.976;8.240;2024-01-15T06:58:07;98814.88;;;-2.15;100.00
804;BME280;25687;49.976;8.240;2024-01-15T07:00:32;98815.63;;;-2.12;100.00
804;BME280;25687;49.976;8.240;2024-01-15T07:02:58;98806.41;;;-2.13;100.00
804;BME280;25687;49.976;8.240;2024-01-15T07:05:23;98796.25;;;-2.08;100.00
804;BME280;25687;49.976;8.240;2024-01-15T07:07:49;98801.94;;;-2.01;100.00
804;BME280;25687;49.976;8.240;2024-01-15T07:10:14;98811.13;;;-1.97;100.00
804;BME280;25687;49.976;8.240;2024-01-15T07:12:43;98813.53;;;-1.94;100.00
804;BME280;25687;49.976;8.240;2024-01-15T07:15:09;98809.44;;;-1.98;100.00
804;BME280;25687;49.976;8.240;2024-01-15T07:17:35;98807.69;;;-1.96;100.00
804;BME280;25687;49.976;8.240;2024-01-15T07:20:01;98809.31;;;-1.93;100.00
804;BME280;25687;49.976;8.240;2024-01-15T07:22:26;98808.25;;;-1.83;100.00
804;BME280;25687;49.976;8.240;2024-01-15T07:24:51;98808.97;;;-1.78;100.00
804;BME280;25687;49.976;8.240;2024-01-15T07:27:17;98807.34;;;-1.81;100.00
804;BME280;25687;49.976;8.240;2024-01-15T07:29:42;98809.91;;;-1.82;100.00
804;BME280;25687;49.976;8.240;2024-01-15T07:32:08;98818.44;;;-1.88;100.00
804;BME280;25687;49.976;8.240;2024-01-15T07:34:33;98812.91;;;-1.68;100.00
804;BME280;25687;49.976;8.240;2024-01-15T07:36:59;98818.25;;;-1.80;100.00
804;BME280;25687;49.976;8.240;2024-01-15T07:39:24;98818.34;;;-1.83;100.00
804;BME280;25687;49.976;8.240;2024-01-15T07:41:51;98810.56;;;-1.75;100.00
804;BME280;25687;49.976;8.240;2024-01-15T07:44:16;98816.31;;;-1.70;100.00
804;BME280;25687;49.976;8.240;2024-01-15T07:46:48;98806.47;;;-1.80;100.00
804;BME280;25687;49.976;8.240;2024-01-15T07:49:13;98823.19;;;-1.75;100.00
804;BME280;25687;49.976;8.240;2024-01-15T07:51:39;98815.56;;;-1.72;100.00
804;BME280;25687;49.976;8.240;2024-01-15T07:54:09;98817.78;;;-1.62;100.00
804;BME280;25687;49.976;8.240;2024-01-15T07:56:34;98820.25;;;-1.58;100.00
804;BME280;25687;49.976;8.240;2024-01-15T07:58:59;98813.44;;;-1.56;100.00
804;BME280;25687;49.976;8.240;2024-01-15T08:01:25;98816.59;;;-1.48;100.00
804;BME280;25687;49.976;8.240;2024-01-15T08:03:50;98819.19;;;-1.50;100.00
804;BME280;25687;49.976;8.240;2024-01-15T08:06:16;98819.03;;;-1.43;100.00
804;BME280;25687;49.976;8.240;2024-01-15T08:08:41;98823.22;;;-1.44;100.00
804;BME280;25687;49.976;8.240;2024-01-15T08:11:06;98809.69;;;-1.40;100.00
804;BME280;25687;49.976;8.240;2024-01-15T08:13:32;98814.47;;;-1.31;100.00
804;BME280;25687;49.976;8.240;2024-01-15T08:15:57;98812.41;;;-1.16;100.00
804;BME280;25687;49.976;8.240;2024-01-15T08:18:22;98809.72;;;-1.10;100.00
804;BME280;25687;49.976;8.240;2024-01-15T08:20:48;98806.16;;;-1.03;100.00
804;BME280;25687;49.976;8.240;2024-01-15T08:23:13;98801.50;;;-0.87;100.00
804;BME280;25687;49.976;8.240;2024-01-15T08:25:38;98788.16;;;-0.92;100.00
804;BME280;25687;49.976;8.240;2024-01-15T08:28:04;98794.22;;;-0.98;100.00
804;BME280;25687;49.976;8.240;2024-01-15T08:30:29;98790.88;;;-0.98;100.00
804;BME280;25687;49.976;8.240;2024-01-15T08:32:55;98792.31;;;-0.89;100.00
804;BME280;25687;49.976;8.240;2024-01-15T08:35:21;98790.78;;;-0.95;100.00
804;BME280;25687;49.976;8.240;2024-01-15T08:37:51;98781.44;;;-0.91;100.00
804;BME280;25687;49.976;8.240;2024-01-15T08:40:17;98785.47;;;-0.86;100.00
804;BME280;25687;49.976;8.240;2024-01-15T08:42:42;98783.84;;;-0.88;100.00
804;BME280;25687;49.976;8.240;2024-01-15T08:45:09;98780.25;;;-0.79;100.00
804;BME280;25687;49.976;8.240;2024-01-15T08:47:35;98787.00;;;-0.80;100.00
804;BME280;25687;49.976;8.240;2024-01-15T08:50:00;98797.19;;;-0.83;100.00
804;BME280;25687;49.976;8.240;2024-01-15T08:52:26;98794.22;;;-0.68;100.00
804;BME280;25687;49.976;8.240;2024-01-15T08:54:51;98794.28;;;-0.69;100.00
804;BME280;25687;49.976;8.240;2024-01-15T08:57:16;98806.22;;;-0.76;100.00
804;BME280;25687;49.976;8.240;2024-01-15T08:59:42;98805.63;;;-0.84;100.00
804;BME280;25687;49.976;8.240;2024-01-15T09:02:07;98813.25;;;-0.86;100.00
804;BME280;25687;49.976;8.240;2024-01-15T09:04:33;98807.38;;;-0.86;100.00
804;BME280;25687;49.976;8.240;2024-01-15T09:06:58;98801.34;;;-0.80;100.00
804;BME280;25687;49.976;8.240;2024-01-15T09:09:23;98801.34;;;-0.82;100.00
804;BME280;25687;49.976;8.240;2024-01-15T09:11:49;98809.91;;;-0.86;100.00
804;BME280;25687;49.976;8.240;2024-01-15T09:14:15;98819.13;;;-0.85;100.00
804;BME280;25687;49.976;8.240;2024-01-15T09:16:40;98819.34;;;-0.93;100.00
804;BME280;25687;49.976;8.240;2024-01-15T09:19:05;98821.81;;;-0.91;100.00
804;BME280;25687;49.976;8.240;2024-01-15T09:21:30;98821.13;;;-0.96;100.00
804;BME280;25687;49.976;8.240;2024-01-15T09:23:56;98832.44;;;-0.80;100.00
804;BME280;25687;49.976;8.240;2024-01-15T09:26:21;98834.56;;;-0.66;100.00
804;BME280;25687;49.976;8.240;2024-01-15T09:28:46;98821.72;;;-0.58;100.00
804;BME280;25687;49.976;8.240;2024-01-15T09:31:12;98819.91;;;-0.53;100.00
804;BME280;25687;49.976;8.240;2024-01-15T09:33:37;98812.91;;;-0.45;100.00
804;BME280;25687;49.976;8.240;2024-01-15T09:36:03;98804.47;;;-0.44;100.00
804;BME280;25687;49.976;8.240;2024-01-15T09:38:29;98804.41;;;-0.42;100.00
804;BME280;25687;49.976;8.240;2024-01-15T09:40:55;98793.47;;;-0.43;100.00
804;BME280;25687;49.976;8.240;2024-01-15T09:43:21;98797.59;;;-0.40;100.00
804;BME280;25687;49.976;8.240;2024-01-15T09:45:47;98800.28;;;-0.45;100.00
804;BME280;25687;49.976;8.240;2024-01-15T09:48:12;98808.34;;;-0.34;100.00
804;BME280;25687;49.976;8.240;2024-01-15T09:50:38;98811.59;;;-0.30;100.00
804;BME280;25687;49.976;8.240;2024-01-15T09:53:05;98806.34;;;-0.22;100.00
804;BME280;25687;49.976;8.240;2024-01-15T09:55:30;98818.22;;;0.03;100.00
804;BME280;25687;49.976;8.240;2024-01-15T09:57:59;98810.56;;;0.04;100.00
804;BME280;25687;49.976;8.240;2024-01-15T10:00:25;98810.91;;;0.19;100.00
804;BME280;25687;49.976;8.240;2024-01-15T10:02:52;98814.38;;;0.16;100.00
804;BME280;25687;49.976;8.240;2024-01-15T10:05:17;98810.97;;;0.17;100.00
804;BME280;25687;49.976;8.240;2024-01-15T10:07:43;98806.88;;;0.40;100.00
804;BME280;25687;49.976;8.240;2024-01-15T10:10:11;98794.19;;;0.41;100.00
804;BME280;25687;49.976;8.240;2024-01-15T10:12:36;98795.19;;;0.36;100.00
804;BME280;25687;49.976;8.240;2024-01-15T10:15:03;98788.44;;;0.36;100.00
804;BME280;25687;49.976;8.240;2024-01-15T10:17:29;98791.91;;;0.34;100.00
804;BME280;25687;49.976;8.240;2024-01-15T10:19:56;98782.06;;;0.50;100.00
804;BME280;25687;49.976;8.240;2024-01-15T10:22:21;98789.41;;;0.57;100.00
804;BME280;25687;49.976;8.240;2024-01-15T10:24:46;98796.38;;;0.51;100.00
804;BME280;25687;49.976;8.240;2024-01-15T10:27:12;98802.94;;;0.56;100.00
804;BME280;25687;49.976;8.240;2024-01-15T10:29:37;98803.03;;;0.53;100.00
804;BME280;25687;49.976;8.240;2024-01-15T10:32:06;98799.66;;;0.29;100.00
804;BME280;25687;49.976;8.240;2024-01-15T10:34:32;98797.72;;;0.36;100.00
804;BME280;25687;49.976;8.240;2024-01-15T10:36:58;98793.03;;;0.50;100.00
804;BME280;25687;49.976;8.240;2024-01-15T10:39:24;98786.97;;;0.79;100.00
804;BME280;25687;49.976;8.240;2024-01-15T10:41:50;98779.63;;;0.95;100.00
804;BME280;25687;49.976;8.240;2024-01-15T10:44:16;98783.09;;;0.93;100.00
804;BME280;25687;49.976;8.240;2024-01-15T10:46:43;98776.44;;;0.90;100.00
804;BME280;25687;49.976;8.240;2024-01-15T10:49:08;98768.97;;;0.87;100.00
804;BME280;25687;49.976;8.240;2024-01-15T10:51:35;98772.94;;;0.94;100.00
804;BME280;25687;49.976;8.240;2024-01-15T10:54:01;98751.75;;;1.19;100.00
804;BME280;25687;49.976;8.240;2024-01-15T10:56:27;98753.28;;;1.23;100.00
804;BME280;25687;49.976;8.240;2024-01-15T10:58:55;98753.06;;;1.72;100.00
804;BME280;25687;49.976;8.240;2024-01-15T11:01:21;98749.44;;;2.21;100.00
804;BME280;25687;49.976;8.240;2024-01-15T11:03:47;98744.25;;;2.83;100.00
804;BME280;25687;49.976;8.240;2024-01-15T11:06:19;98743.16;;;2.88;100.00
804;BME280;25687;49.976;8.240;2024-01-15T11:08:48;98734.78;;;2.67;100.00
804;BME280;25687;49.976;8.240;2024-01-15T11:11:16;98736.50;;;2.67;100.00
804;BME280;25687;49.976;8.240;2024-01-15T11:13:41;98730.66;;;2.84;100.00
804;BME280;25687;49.976;8.240;2024-01-15T11:16:10;98732.44;;;3.01;100.00
804;BME280;25687;49.976;8.240;2024-01-15T11:18:40;98740.75;;;3.04;100.00
804;BME280;25687;49.976;8.240;2024-01-15T11:23:43;98728.59;;;3.11;100.00
804;BME280;25687;49.976;8.240;2024-01-15T11:26:32;98726.84;;;2.94;100.00
804;BME280;25687;49.976;8.240;2024-01-15T11:28:59;98733.28;;;2.82;100.00
804;BME280;25687;49.976;8.240;2024-01-15T11:34:06;98724.47;;;2.70;100.00
804;BME280;25687;49.976;8.240;2024-01-15T11:42:00;98718.25;;;1.98;100.00
804;BME280;25687;49.976;8.240;2024-01-15T11:44:26;98717.34;;;1.78;100.00
804;BME280;25687;49.976;8.240;2024-01-15T11:47:02;98721.75;;;1.75;100.00
804;BME280;25687;49.976;8.240;2024-01-15T11:50:04;98727.28;;;1.63;100.00
804;BME280;25687;49.976;8.240;2024-01-15T11:52:33;98734.41;;;1.75;100.00
804;BME280;25687;49.976;8.240;2024-01-15T11:55:06;98732.31;;;1.85;100.00
804;BME280;25687;49.976;8.240;2024-01-15T11:57:46;98743.16;;;1.68;100.00
804;BME280;25687;49.976;8.240;2024-01-15T12:00:14;98734.28;;;1.78;100.00
804;BME280;25687;49.976;8.240;2024-01-15T12:02:44;98733.78;;;1.90;100.00
804;BME280;25687;49.976;8.240;2024-01-15T12:05:14;98739.28;;;2.00;100.00
804;BME280;25687;49.976;8.240;2024-01-15T12:07:40;98741.13;;;1.97;100.00
804;BME280;25687;49.976;8.240;2024-01-15T12:10:13;98739.34;;;1.78;100.00
804;BME280;25687;49.976;8.240;2024-01-15T12:12:57;98745.22;;;1.78;100.00
804;BME280;25687;49.976;8.240;2024-01-15T12:15:28;98746.06;;;2.00;100.00
804;BME280;25687;49.976;8.240;2024-01-15T12:17:55;98744.41;;;1.78;100.00
804;BME280;25687;49.976;8.240;2024-01-15T12:20:23;98740.25;;;1.55;100.00
804;BME280;25687;49.976;8.240;2024-01-15T12:22:49;98734.84;;;1.42;100.00
804;BME280;25687;49.976;8.240;2024-01-15T12:25:14;98734.94;;;1.39;100.00
804;BME280;25687;49.976;8.240;2024-01-15T12:27:40;98736.06;;;1.54;100.00
804;BME280;25687;49.976;8.240;2024-01-15T12:30:06;98728.84;;;1.44;100.00
804;BME280;25687;49.976;8.240;2024-01-15T12:32:32;98729.94;;;1.59;100.00
804;BME280;25687;49.976;8.240;2024-01-15T12:34:57;98731.91;;;1.53;100.00
804;BME280;25687;49.976;8.240;2024-01-15T12:37:24;98738.00;;;1.69;100.00
804;BME280;25687;49.976;8.240;2024-01-15T12:39:51;98736.88;;;1.76;100.00
804;BME280;25687;49.976;8.240;2024-01-15T12:42:17;98741.34;;;1.70;100.00
804;BME280;25687;49.976;8.240;2024-01-15T12:44:44;98731.81;;;1.76;100.00
804;BME280;25687;49.976;8.240;2024-01-15T12:47:10;98736.00;;;1.77;100.00
804;BME280;25687;49.976;8.240;2024-01-15T12:49:38;98738.47;;;1.79;100.00
804;BME280;25687;49.976;8.240;2024-01-15T12:52:08;98745.06;;;1.83;100.00
804;BME280;25687;49.976;8.240;2024-01-15T12:54:34;98736.75;;;2.00;100.00
804;BME280;25687;49.976;8.240;2024-01-15T12:56:59;98747.88;;;1.98;100.00
804;BME280;25687;49.976;8.240;2024-01-15T12:59:24;98748.59;;;2.00;100.00
804;BME280;25687;49.976;8.240;2024-01-15T13:01:50;98743.84;;;1.92;100.00
804;BME280;25687;49.976;8.240;2024-01-15T13:04:25;98748.91;;;1.92;100.00
804;BME280;25687;49.976;8.240;2024-01-15T13:06:51;98745.25;;;1.99;100.00
804;BME280;25687;49.976;8.240;2024-01-15T13:09:19;98749.28;;;1.62;100.00
804;BME280;25687;49.976;8.240;2024-01-15T13:11:45;98742.38;;;1.66;100.00
804;BME280;25687;49.976;8.240;2024-01-15T13:14:11;98740.53;;;1.69;100.00
804;BME280;25687;49.976;8.240;2024-01-15T13:16:38;98744.44;;;1.56;100.00